This is the latest recevied weather packets stored in our database for station/object ON7SD-5. If no packets are shown the sender has not sent any weather packets the latest 10 day(s).
| Time | Temp. | Humidity | Pressure | Rain* | Wind** | Luminosity | Snow |
|---|---|---|---|---|---|---|---|
| 1777750632 | 16.11° C | 93% | 1011.7 hPa | 0 mm | - | 0 W/m² | - |
| 1777747032 | 15.56° C | 90% | 1012.1 hPa | 17.02 mm | - | 12 W/m² | - |
| 1777745232 | 16.11° C | 89% | 1012.6 hPa | 17.53 mm | - | 0 W/m² | - |
| 1777741632 | 23.89° C | 52% | 1011.8 hPa | 0 mm | - | 53 W/m² | - |
| 1777741032 | 23.89° C | 53% | 1011.8 hPa | 0 mm | - | 98 W/m² | - |
| 1777739832 | 23.89° C | 52% | 1012.1 hPa | 0 mm | - | 74 W/m² | - |
| 1777739232 | 24.44° C | 52% | 1012.1 hPa | 0 mm | - | 83 W/m² | - |
| 1777738632 | 24.44° C | 51% | 1012.4 hPa | 0 mm | - | 107 W/m² | - |
| 1777738332 | 24.44° C | 51% | 1012.4 hPa | 0 mm | - | 146 W/m² | - |
| 1777738032 | 25° C | 51% | 1012.6 hPa | 0 mm | - | 322 W/m² | - |
| 1777736232 | 25.56° C | 49% | 1013 hPa | 0 mm | - | 146 W/m² | - |
| 1777735932 | 26.11° C | 48% | 1013 hPa | 0 mm | - | 510 W/m² | - |
| 1777735633 | 26.11° C | 49% | 1013.1 hPa | 0 mm | - | 543 W/m² | - |
| 1777735332 | 25.56° C | 50% | 1013.1 hPa | 0 mm | - | 536 W/m² | - |
| 1777735032 | 25.56° C | 50% | 1013.2 hPa | 0 mm | - | 543 W/m² | - |
| 1777734733 | 25.56° C | 49% | 1013.4 hPa | 0 mm | - | 531 W/m² | - |
| 1777734433 | 25.56° C | 49% | 1013.4 hPa | 0 mm | - | 584 W/m² | - |
| 1777734132 | 26.11° C | 49% | 1013.6 hPa | 0 mm | - | 566 W/m² | - |
| 1777733833 | 26.11° C | 50% | 1013.6 hPa | 0 mm | - | 585 W/m² | - |
| 1777733533 | 25.56° C | 50% | 1013.7 hPa | 0 mm | - | 478 W/m² | - |
| 1777733233 | 25.56° C | 50% | 1013.8 hPa | 0 mm | - | 631 W/m² | - |
| 1777732633 | 25.56° C | 50% | 1013.8 hPa | 0 mm | - | 527 W/m² | - |
| 1777732333 | 25.56° C | 52% | 1014 hPa | 0 mm | - | 621 W/m² | - |
| 1777732033 | 24.44° C | 54% | 1014 hPa | 0 mm | - | 677 W/m² | - |
| 1777731733 | 24.44° C | 56% | 1014.2 hPa | 0 mm | - | 714 W/m² | - |
* Rain latest hour (hover to see other rain measurements)
** Current wind speed in m/s (hover to see current wind gust speed)